Time;durP1;ratioP1;P1;durP2;ratioP2;P2;SDS_P1;SDS_P2;PMS_P1;PMS_P2;Temp;Humidity;BMP_temperature;BMP_pressure;BME280_temperature;BME280_humidity;BME280_pressure;Samples;Min_cycle;Max_cycle;Signal;HPM_P1;HPM_P2
2023/08/07 00:00:28;;;;;;;;;;;;;;;22.29;100.00;101129.50;5094194;28;19990;-58
2023/08/07 00:02:53;;;;;;;;;;;;;;;22.53;100.00;101126.31;5093382;28;20392;-57
2023/08/07 00:05:19;;;;;;;;;;;;;;;22.18;100.00;101126.75;5083983;28;19917;-56
2023/08/07 00:07:44;;;;;;;;;;;;;;;22.23;100.00;101134.09;5088522;28;19952;-56
2023/08/07 00:10:10;;;;;;;;;;;;;;;22.38;100.00;101130.63;5086663;28;19916;-57
2023/08/07 00:12:35;;;;;;;;;;;;;;;22.44;100.00;101132.28;5093628;28;19927;-57
2023/08/07 00:15:01;;;;;;;;;;;;;;;22.54;100.00;101133.41;5090995;28;19926;-57
2023/08/07 00:17:26;;;;;;;;;;;;;;;22.97;100.00;101136.75;5094800;28;19917;-57
2023/08/07 00:19:52;;;;;;;;;;;;;;;23.27;100.00;101131.59;5084423;28;19972;-58
2023/08/07 00:22:18;;;;;;;;;;;;;;;22.21;100.00;101133.56;5079923;28;19920;-58
2023/08/07 00:24:44;;;;;;;;;;;;;;;22.79;100.00;101140.81;5085957;28;19917;-56
2023/08/07 00:27:12;;;;;;;;;;;;;;;21.99;100.00;101128.31;5079930;28;19916;-59
2023/08/07 00:29:40;;;;;;;;;;;;;;;22.57;100.00;101132.88;5081503;28;19933;-57
2023/08/07 00:32:06;;;;;;;;;;;;;;;22.68;100.00;101139.16;5098106;28;19923;-56
2023/08/07 00:34:31;;;;;;;;;;;;;;;23.05;100.00;101133.47;5090327;28;19943;-56
2023/08/07 00:36:56;;;;;;;;;;;;;;;22.54;100.00;101139.69;5097687;28;19939;-58
2023/08/07 00:39:24;;;;;;;;;;;;;;;22.11;100.00;101137.06;5098247;28;19917;-55
2023/08/07 00:41:50;;;;;;;;;;;;;;;22.29;100.00;101132.22;5098130;28;19975;-58
2023/08/07 00:44:15;;;;;;;;;;;;;;;22.32;100.00;101131.69;5103025;28;19917;-57
2023/08/07 00:46:42;;;;;;;;;;;;;;;22.16;100.00;101142.53;5080519;28;19948;-56
2023/08/07 00:49:09;;;;;;;;;;;;;;;21.76;100.00;101135.81;5097801;28;19916;-57
2023/08/07 00:51:37;;;;;;;;;;;;;;;21.11;100.00;101138.59;5101003;28;19916;-59
2023/08/07 00:54:04;;;;;;;;;;;;;;;21.29;100.00;101131.94;5079558;28;19936;-57
2023/08/07 00:56:29;;;;;;;;;;;;;;;21.40;100.00;101133.66;5078032;28;19932;-57
2023/08/07 00:58:55;;;;;;;;;;;;;;;21.97;100.00;101141.38;5078239;28;19979;-58
2023/08/07 01:01:20;;;;;;;;;;;;;;;22.22;100.00;101148.00;5081658;28;19962;-58
2023/08/07 01:03:46;;;;;;;;;;;;;;;21.55;100.00;101132.09;5098743;28;19920;-56
2023/08/07 01:06:12;;;;;;;;;;;;;;;22.00;100.00;101140.84;5094583;28;19916;-57
2023/08/07 01:08:38;;;;;;;;;;;;;;;22.25;100.00;101148.28;5106756;28;19928;-58
2023/08/07 01:11:30;;;;;;;;;;;;;;;21.59;100.00;101142.22;5089874;28;19920;-59
2023/08/07 01:13:57;;;;;;;;;;;;;;;21.88;100.00;101149.22;5092926;28;19980;-55
2023/08/07 01:16:28;;;;;;;;;;;;;;;21.92;100.00;101144.88;5079055;28;19927;-55
2023/08/07 01:18:54;;;;;;;;;;;;;;;21.81;100.00;101148.66;5096942;28;19946;-56
2023/08/07 01:21:20;;;;;;;;;;;;;;;21.62;100.00;101143.59;5096533;28;19920;-56
2023/08/07 01:23:46;;;;;;;;;;;;;;;22.16;100.00;101158.88;5118747;28;20020;-56
2023/08/07 01:26:11;;;;;;;;;;;;;;;21.93;100.00;101160.13;5096515;28;19912;-57
2023/08/07 01:28:41;;;;;;;;;;;;;;;22.18;100.00;101151.28;5097323;28;19920;-58
2023/08/07 01:31:10;;;;;;;;;;;;;;;21.69;100.00;101154.28;5097546;28;19928;-54
2023/08/07 01:33:53;;;;;;;;;;;;;;;21.85;100.00;101156.00;5097505;28;19912;-56
2023/08/07 01:36:20;;;;;;;;;;;;;;;22.53;100.00;101148.13;5097373;28;19916;-56
2023/08/07 01:38:48;;;;;;;;;;;;;;;21.89;100.00;101151.66;5112135;28;19924;-57
2023/08/07 01:41:14;;;;;;;;;;;;;;;21.61;100.00;101144.69;5115575;28;19924;-57
2023/08/07 01:43:40;;;;;;;;;;;;;;;21.88;100.00;101154.66;5097335;28;19923;-55
2023/08/07 01:46:06;;;;;;;;;;;;;;;21.41;100.00;101151.63;5096842;28;19923;-56
2023/08/07 01:48:32;;;;;;;;;;;;;;;21.30;100.00;101152.59;5083896;28;19938;-55
2023/08/07 01:50:57;;;;;;;;;;;;;;;21.44;100.00;101155.69;5097197;28;19976;-56
2023/08/07 01:53:23;;;;;;;;;;;;;;;21.48;100.00;101156.84;5112504;28;19955;-55
2023/08/07 01:55:48;;;;;;;;;;;;;;;21.38;100.00;101151.31;5085570;28;19917;-54
2023/08/07 01:58:14;;;;;;;;;;;;;;;21.56;100.00;101160.94;5113117;28;19992;-57
2023/08/07 02:00:39;;;;;;;;;;;;;;;21.30;100.00;101166.22;5097004;28;19924;-58
2023/08/07 02:03:08;;;;;;;;;;;;;;;21.23;100.00;101163.72;5070226;28;19925;-56
2023/08/07 02:05:33;;;;;;;;;;;;;;;21.60;100.00;101172.97;5103041;28;19921;-53
2023/08/07 02:07:58;;;;;;;;;;;;;;;21.33;100.00;101163.81;5078892;28;19927;-57
2023/08/07 02:10:24;;;;;;;;;;;;;;;21.23;100.00;101157.47;5078878;28;19924;-54
2023/08/07 02:12:49;;;;;;;;;;;;;;;21.54;100.00;101168.56;5119305;28;19939;-58
2023/08/07 02:15:15;;;;;;;;;;;;;;;21.71;100.00;101171.19;5096537;28;19924;-57
2023/08/07 02:17:41;;;;;;;;;;;;;;;21.78;100.00;101172.56;5078631;28;19952;-57
2023/08/07 02:20:07;;;;;;;;;;;;;;;21.70;100.00;101167.63;5096634;28;19917;-57
2023/08/07 02:22:32;;;;;;;;;;;;;;;22.34;100.00;101184.00;5100332;28;19920;-54
2023/08/07 02:24:57;;;;;;;;;;;;;;;21.98;100.00;101184.66;5096294;28;19916;-56
2023/08/07 02:27:23;;;;;;;;;;;;;;;21.47;100.00;101175.06;5112283;28;19920;-56
2023/08/07 02:29:50;;;;;;;;;;;;;;;22.01;100.00;101180.59;5096413;28;19979;-56
2023/08/07 02:32:16;;;;;;;;;;;;;;;21.58;100.00;101175.94;5096948;28;19980;-57
2023/08/07 02:34:42;;;;;;;;;;;;;;;22.34;100.00;101173.09;5112327;28;19916;-52
2023/08/07 02:37:08;;;;;;;;;;;;;;;21.88;100.00;101181.88;5062068;28;19922;-55
2023/08/07 02:39:33;;;;;;;;;;;;;;;22.22;100.00;101186.13;5095608;28;19921;-55
2023/08/07 02:41:59;;;;;;;;;;;;;;;21.52;100.00;101177.00;5099352;28;19928;-57
2023/08/07 02:44:25;;;;;;;;;;;;;;;21.78;100.00;101177.19;5103695;28;19916;-55
2023/08/07 02:46:51;;;;;;;;;;;;;;;21.59;100.00;101169.41;5095951;28;19923;-54
2023/08/07 02:49:17;;;;;;;;;;;;;;;22.63;100.00;101176.22;5095857;28;19931;-54
2023/08/07 02:51:42;;;;;;;;;;;;;;;22.53;100.00;101178.09;5112042;28;19931;-54
2023/08/07 02:54:08;;;;;;;;;;;;;;;22.35;100.00;101170.13;5104162;28;19980;-56
2023/08/07 02:56:33;;;;;;;;;;;;;;;22.28;100.00;101180.44;5111612;28;19920;-52
2023/08/07 02:59:01;;;;;;;;;;;;;;;21.87;100.00;101172.88;5095785;28;19920;-55
2023/08/07 03:01:27;;;;;;;;;;;;;;;22.05;100.00;101168.09;5078093;28;19932;-59
2023/08/07 03:03:53;;;;;;;;;;;;;;;22.51;100.00;101178.38;5095618;28;19923;-57
2023/08/07 03:06:18;;;;;;;;;;;;;;;22.57;100.00;101182.75;5095434;28;19916;-55
2023/08/07 03:08:44;;;;;;;;;;;;;;;21.85;100.00;101183.22;5078206;28;19956;-56
2023/08/07 03:11:09;;;;;;;;;;;;;;;22.04;100.00;101171.88;5111725;28;19939;-56
2023/08/07 03:13:35;;;;;;;;;;;;;;;21.80;100.00;101175.03;5078614;28;19923;-55
2023/08/07 03:16:01;;;;;;;;;;;;;;;22.29;100.00;101171.19;5079302;28;19920;-55
2023/08/07 03:18:27;;;;;;;;;;;;;;;22.20;100.00;101175.50;5095703;28;19931;-54
2023/08/07 03:20:52;;;;;;;;;;;;;;;22.66;100.00;101176.78;5095478;28;19916;-53
2023/08/07 03:23:18;;;;;;;;;;;;;;;21.63;100.00;101173.25;5106491;28;20017;-52
2023/08/07 03:25:44;;;;;;;;;;;;;;;21.78;100.00;101166.31;5078272;28;19946;-56
2023/08/07 03:28:09;;;;;;;;;;;;;;;22.15;100.00;101170.88;5077768;28;19917;-56
2023/08/07 03:30:35;;;;;;;;;;;;;;;21.51;100.00;101156.31;5077764;28;19930;-52
2023/08/07 03:33:01;;;;;;;;;;;;;;;22.23;100.00;101172.25;5103140;28;19920;-54
2023/08/07 03:35:27;;;;;;;;;;;;;;;22.01;100.00;101170.50;5078101;28;19924;-56
2023/08/07 03:37:53;;;;;;;;;;;;;;;22.06;100.00;101178.72;5095351;28;19921;-54
2023/08/07 03:40:19;;;;;;;;;;;;;;;22.39;100.00;101180.47;5077378;28;19916;-55
2023/08/07 03:42:45;;;;;;;;;;;;;;;22.34;100.00;101181.28;5077590;28;19928;-55
2023/08/07 03:45:10;;;;;;;;;;;;;;;22.52;100.00;101181.91;5077189;28;19912;-56
2023/08/07 03:47:38;;;;;;;;;;;;;;;22.43;100.00;101176.13;5095315;28;19916;-53
2023/08/07 03:50:04;;;;;;;;;;;;;;;22.46;100.00;101181.91;5111038;28;19927;-54
2023/08/07 03:52:30;;;;;;;;;;;;;;;22.67;100.00;101179.25;5077404;28;19920;-54
2023/08/07 03:54:56;;;;;;;;;;;;;;;22.16;100.00;101174.41;5110942;28;19929;-55
2023/08/07 03:57:22;;;;;;;;;;;;;;;22.17;100.00;101179.59;5077434;28;19947;-54
2023/08/07 03:59:48;;;;;;;;;;;;;;;21.52;100.00;101168.84;5077361;28;19939;-56
2023/08/07 04:02:14;;;;;;;;;;;;;;;21.74;100.00;101170.66;5095920;28;19921;-56
2023/08/07 04:04:40;;;;;;;;;;;;;;;22.01;100.00;101170.50;5084244;28;19924;-56
2023/08/07 04:07:06;;;;;;;;;;;;;;;21.95;100.00;101187.09;5103344;28;19916;-55
2023/08/07 04:09:31;;;;;;;;;;;;;;;22.12;100.00;101184.19;5099109;28;19920;-55
2023/08/07 04:11:57;;;;;;;;;;;;;;;22.23;100.00;101187.78;5081611;28;19931;-57
2023/08/07 04:14:23;;;;;;;;;;;;;;;22.08;100.00;101181.16;5100596;28;19990;-55
2023/08/07 04:16:48;;;;;;;;;;;;;;;21.81;100.00;101176.66;5107065;28;19916;-56
2023/08/07 04:19:14;;;;;;;;;;;;;;;22.01;100.00;101181.41;5098749;28;19992;-55
2023/08/07 04:21:39;;;;;;;;;;;;;;;22.26;100.00;101181.78;5081430;28;19920;-55
2023/08/07 04:24:10;;;;;;;;;;;;;;;22.48;100.00;101190.63;5081029;28;19916;-56
2023/08/07 04:26:36;;;;;;;;;;;;;;;22.65;100.00;101178.69;5121322;28;19912;-57
2023/08/07 04:29:02;;;;;;;;;;;;;;;22.72;100.00;101190.16;5098415;28;19979;-57
2023/08/07 04:31:27;;;;;;;;;;;;;;;22.59;100.00;101194.19;5098577;28;19923;-56
2023/08/07 04:33:52;;;;;;;;;;;;;;;22.72;100.00;101189.31;5102362;28;19916;-56
2023/08/07 04:36:20;;;;;;;;;;;;;;;22.16;100.00;101183.41;5102842;28;19916;-57
2023/08/07 04:38:46;;;;;;;;;;;;;;;22.58;100.00;101186.28;5098780;28;19934;-58
2023/08/07 04:41:12;;;;;;;;;;;;;;;22.70;100.00;101186.03;5098203;28;19921;-56
2023/08/07 04:43:37;;;;;;;;;;;;;;;22.44;100.00;101200.41;5099082;28;19980;-57
2023/08/07 04:46:03;;;;;;;;;;;;;;;22.68;100.00;101205.41;5099632;28;19916;-55
2023/08/07 04:48:28;;;;;;;;;;;;;;;22.50;100.00;101209.44;5081226;28;19926;-57
2023/08/07 04:50:54;;;;;;;;;;;;;;;22.53;100.00;101199.91;5098409;28;20386;-56
2023/08/07 04:53:19;;;;;;;;;;;;;;;22.32;100.00;101207.97;5097943;28;19964;-57
2023/08/07 04:55:46;;;;;;;;;;;;;;;21.55;100.00;101200.97;5098272;28;19972;-57
2023/08/07 04:58:11;;;;;;;;;;;;;;;21.98;100.00;101202.91;5110331;28;19923;-60
2023/08/07 05:00:37;;;;;;;;;;;;;;;22.14;100.00;101204.59;5098091;28;19967;-56
2023/08/07 05:03:02;;;;;;;;;;;;;;;21.97;100.00;101202.06;5097699;28;19921;-56
2023/08/07 05:05:27;;;;;;;;;;;;;;;22.23;100.00;101210.38;5103921;28;19915;-57
2023/08/07 05:07:54;;;;;;;;;;;;;;;21.95;100.00;101200.72;5098263;28;19920;-56
2023/08/07 05:10:19;;;;;;;;;;;;;;;22.02;100.00;101204.81;5097887;28;20003;-56
2023/08/07 05:12:45;;;;;;;;;;;;;;;22.56;100.00;101210.25;5097552;28;19920;-56
2023/08/07 05:15:10;;;;;;;;;;;;;;;22.29;100.00;101213.94;5101775;28;19916;-57
2023/08/07 05:17:36;;;;;;;;;;;;;;;22.74;100.00;101222.59;5097749;28;19947;-57
2023/08/07 05:20:02;;;;;;;;;;;;;;;22.17;100.00;101217.72;5097396;28;19924;-55
2023/08/07 05:22:27;;;;;;;;;;;;;;;22.38;100.00;101220.53;5097547;28;19952;-56
2023/08/07 05:24:53;;;;;;;;;;;;;;;22.48;100.00;101227.94;5081469;28;19952;-57
2023/08/07 05:27:19;;;;;;;;;;;;;;;22.18;100.00;101223.97;5098076;28;19916;-58
2023/08/07 05:29:44;;;;;;;;;;;;;;;21.92;100.00;101226.56;5097387;28;19917;-58
2023/08/07 05:32:11;;;;;;;;;;;;;;;22.08;100.00;101224.72;5097393;28;19917;-58
2023/08/07 05:34:37;;;;;;;;;;;;;;;22.35;100.00;101231.94;5107965;28;19916;-59
2023/08/07 05:37:02;;;;;;;;;;;;;;;22.49;100.00;101232.34;5109119;28;19987;-58
2023/08/07 05:39:27;;;;;;;;;;;;;;;22.40;100.00;101234.72;5097338;28;19916;-56
2023/08/07 05:41:54;;;;;;;;;;;;;;;22.02;100.00;101237.50;5096946;28;19932;-56
2023/08/07 05:44:20;;;;;;;;;;;;;;;23.18;100.00;101248.59;5104251;28;19928;-56
2023/08/07 05:46:45;;;;;;;;;;;;;;;23.28;100.00;101248.63;5100378;28;19916;-58
2023/08/07 05:49:10;;;;;;;;;;;;;;;22.13;100.00;101253.91;5108513;28;19916;-55
2023/08/07 05:51:36;;;;;;;;;;;;;;;21.82;100.00;101246.34;5097663;28;19917;-56
2023/08/07 05:54:02;;;;;;;;;;;;;;;21.76;100.00;101244.69;5096797;28;19946;-58
2023/08/07 05:56:27;;;;;;;;;;;;;;;22.66;100.00;101251.19;5097786;28;19917;-58
2023/08/07 05:58:52;;;;;;;;;;;;;;;22.54;100.00;101259.59;5095641;28;19917;-56
2023/08/07 06:01:18;;;;;;;;;;;;;;;22.84;100.00;101262.72;5091076;28;19950;-58
2023/08/07 06:03:44;;;;;;;;;;;;;;;22.74;100.00;101253.41;5096649;28;19927;-56
2023/08/07 06:06:09;;;;;;;;;;;;;;;23.29;100.00;101263.09;5094539;28;19916;-56
2023/08/07 06:08:34;;;;;;;;;;;;;;;23.17;100.00;101266.03;5091458;28;19916;-57
2023/08/07 06:11:04;;;;;;;;;;;;;;;23.09;100.00;101269.31;5093722;28;19916;-58
2023/08/07 06:13:30;;;;;;;;;;;;;;;22.70;100.00;101262.38;5096351;28;20008;-57
2023/08/07 06:15:56;;;;;;;;;;;;;;;22.98;100.00;101271.19;5109778;28;20379;-57
2023/08/07 06:18:22;;;;;;;;;;;;;;;22.78;100.00;101270.84;5104729;28;19916;-58
2023/08/07 06:20:47;;;;;;;;;;;;;;;22.40;100.00;101275.59;5096174;28;19940;-56
2023/08/07 06:23:13;;;;;;;;;;;;;;;23.40;100.00;101293.94;5096278;28;19936;-56
2023/08/07 06:25:38;;;;;;;;;;;;;;;23.16;100.00;101292.50;5095214;28;19916;-58
2023/08/07 06:28:04;;;;;;;;;;;;;;;22.81;100.00;101290.47;5090534;28;19964;-53
2023/08/07 06:30:32;;;;;;;;;;;;;;;23.17;100.00;101294.13;5092106;28;19947;-57
2023/08/07 06:32:57;;;;;;;;;;;;;;;22.46;100.00;101284.59;5076831;28;19917;-57
2023/08/07 06:35:23;;;;;;;;;;;;;;;23.13;100.00;101292.22;5090943;28;20006;-59
2023/08/07 06:37:49;;;;;;;;;;;;;;;21.91;100.00;101293.81;5094639;28;19944;-56
2023/08/07 06:40:14;;;;;;;;;;;;;;;22.59;100.00;101299.66;5093829;28;19948;-58
2023/08/07 06:42:40;;;;;;;;;;;;;;;22.47;100.00;101292.53;5087101;28;19956;-55
2023/08/07 06:45:06;;;;;;;;;;;;;;;21.92;100.00;101300.06;5095786;28;19916;-56
2023/08/07 06:47:31;;;;;;;;;;;;;;;22.25;100.00;101305.47;5080309;28;19928;-56
2023/08/07 06:49:57;;;;;;;;;;;;;;;22.91;100.00;101306.91;5098078;28;19916;-57
2023/08/07 06:52:22;;;;;;;;;;;;;;;23.44;100.00;101319.59;5087386;28;19916;-56
2023/08/07 06:54:48;;;;;;;;;;;;;;;23.14;100.00;101318.41;5095700;28;19916;-57
2023/08/07 06:57:14;;;;;;;;;;;;;;;23.06;100.00;101320.56;5089954;28;19987;-57
2023/08/07 06:59:40;;;;;;;;;;;;;;;22.86;100.00;101320.53;5095645;28;19939;-56
2023/08/07 07:02:05;;;;;;;;;;;;;;;22.62;100.00;101315.50;5089140;28;19921;-58
2023/08/07 07:04:31;;;;;;;;;;;;;;;22.65;100.00;101317.69;5095532;28;19999;-57
2023/08/07 07:06:57;;;;;;;;;;;;;;;22.34;100.00;101315.59;5096756;28;19916;-58
2023/08/07 07:09:22;;;;;;;;;;;;;;;22.54;100.00;101324.16;5095237;28;19954;-58
2023/08/07 07:11:48;;;;;;;;;;;;;;;24.22;100.00;101325.88;5090978;28;19928;-57
2023/08/07 07:14:13;;;;;;;;;;;;;;;24.38;100.00;101325.84;5095241;28;19988;-61
2023/08/07 07:16:39;;;;;;;;;;;;;;;24.66;100.00;101334.50;5092631;28;19917;-61
2023/08/07 07:19:08;;;;;;;;;;;;;;;24.03;100.00;101342.03;5102932;28;19921;-61
2023/08/07 07:21:33;;;;;;;;;;;;;;;24.27;100.00;101357.84;5093724;28;19920;-57
2023/08/07 07:23:59;;;;;;;;;;;;;;;24.09;100.00;101354.59;5093996;28;19920;-57
2023/08/07 07:26:25;;;;;;;;;;;;;;;23.40;100.00;101359.44;5092238;28;19925;-59
2023/08/07 07:28:51;;;;;;;;;;;;;;;23.11;100.00;101349.78;5097623;28;19927;-56
2023/08/07 07:31:16;;;;;;;;;;;;;;;23.77;100.00;101356.47;5084508;28;19917;-55
2023/08/07 07:33:42;;;;;;;;;;;;;;;23.04;100.00;101355.47;5092992;28;19928;-56
2023/08/07 07:36:13;;;;;;;;;;;;;;;23.24;100.00;101351.16;5085503;28;19924;-56
2023/08/07 07:38:38;;;;;;;;;;;;;;;22.87;100.00;101350.22;5096043;28;19946;-57
2023/08/07 07:41:03;;;;;;;;;;;;;;;23.16;100.00;101352.50;5086010;28;19921;-57
2023/08/07 07:43:29;;;;;;;;;;;;;;;22.94;100.00;101360.91;5093617;28;19920;-54
2023/08/07 07:45:54;;;;;;;;;;;;;;;23.03;100.00;101370.19;5087799;28;21007;-55
2023/08/07 07:48:20;;;;;;;;;;;;;;;23.52;100.00;101365.44;5092766;28;19927;-56
2023/08/07 07:50:45;;;;;;;;;;;;;;;23.76;100.00;101375.88;5088671;28;19923;-56
2023/08/07 07:53:11;;;;;;;;;;;;;;;23.34;100.00;101377.69;5093242;28;19916;-57
2023/08/07 07:55:37;;;;;;;;;;;;;;;23.45;100.00;101375.81;5089831;28;19916;-57
2023/08/07 07:58:03;;;;;;;;;;;;;;;23.74;100.00;101381.59;5069291;28;20158;-57
2023/08/07 08:00:29;;;;;;;;;;;;;;;24.02;100.00;101389.56;5090543;28;19916;-59
2023/08/07 08:02:54;;;;;;;;;;;;;;;23.22;100.00;101388.81;5087859;28;19921;-59
2023/08/07 08:05:21;;;;;;;;;;;;;;;23.92;100.00;101393.09;5091990;28;20051;-56
2023/08/07 08:07:47;;;;;;;;;;;;;;;24.88;100.00;101397.91;5094407;28;19916;-55
2023/08/07 08:10:13;;;;;;;;;;;;;;;24.83;100.00;101395.19;5094313;28;19943;-58
2023/08/07 08:12:38;;;;;;;;;;;;;;;24.84;100.00;101396.00;5094678;28;19938;-58
2023/08/07 08:15:04;;;;;;;;;;;;;;;25.38;100.00;101404.53;5094410;28;19955;-56
2023/08/07 08:17:30;;;;;;;;;;;;;;;24.98;100.00;101405.25;5089469;28;19917;-56
2023/08/07 08:19:56;;;;;;;;;;;;;;;23.92;100.00;101406.75;5071050;28;19980;-57
2023/08/07 08:22:21;;;;;;;;;;;;;;;24.09;100.00;101408.41;5094082;28;19920;-57
2023/08/07 08:24:50;;;;;;;;;;;;;;;24.55;100.00;101407.53;5094934;28;19939;-54
2023/08/07 08:27:17;;;;;;;;;;;;;;;24.64;100.00;101414.06;5111062;28;19916;-58
2023/08/07 08:29:43;;;;;;;;;;;;;;;24.63;100.00;101409.69;5102781;28;19920;-58
2023/08/07 08:32:09;;;;;;;;;;;;;;;24.32;100.00;101410.56;5081778;28;19944;-55
2023/08/07 08:34:35;;;;;;;;;;;;;;;24.95;100.00;101416.78;5094750;28;19951;-55
2023/08/07 08:37:00;;;;;;;;;;;;;;;25.60;100.00;101417.84;5097435;28;19916;-58
2023/08/07 08:39:26;;;;;;;;;;;;;;;25.82;100.00;101430.31;5094495;28;19916;-58
2023/08/07 08:41:51;;;;;;;;;;;;;;;25.40;99.32;101408.63;5094036;28;19927;-57
2023/08/07 08:44:19;;;;;;;;;;;;;;;24.87;98.57;101411.84;5094165;28;20038;-59
2023/08/07 08:46:46;;;;;;;;;;;;;;;24.66;95.41;101420.09;5094337;28;19920;-56
2023/08/07 08:49:16;;;;;;;;;;;;;;;24.67;95.01;101421.72;5100581;28;19992;-58
2023/08/07 08:51:42;;;;;;;;;;;;;;;25.61;90.25;101425.78;5099924;28;19947;-56
2023/08/07 08:54:08;;;;;;;;;;;;;;;25.25;90.48;101428.69;5086899;28;19917;-58
2023/08/07 08:56:33;;;;;;;;;;;;;;;25.28;84.89;101428.13;5096377;28;19943;-58
2023/08/07 08:58:59;;;;;;;;;;;;;;;25.47;83.95;101430.25;5096162;28;19920;-56
2023/08/07 09:01:26;;;;;;;;;;;;;;;25.80;81.79;101425.09;5099846;28;19920;-58
2023/08/07 09:03:53;;;;;;;;;;;;;;;25.80;79.04;101427.03;5097934;28;19916;-55
2023/08/07 09:06:19;;;;;;;;;;;;;;;26.20;75.82;101436.06;5097228;28;19916;-55
2023/08/07 09:08:45;;;;;;;;;;;;;;;26.04;76.65;101440.81;5096970;28;19916;-56
2023/08/07 09:11:10;;;;;;;;;;;;;;;25.60;82.78;101426.88;5097491;28;19917;-55
2023/08/07 09:13:36;;;;;;;;;;;;;;;25.68;83.77;101427.38;5097704;28;19916;-57
2023/08/07 09:16:02;;;;;;;;;;;;;;;26.14;76.80;101446.22;5097417;28;19917;-58
2023/08/07 09:18:28;;;;;;;;;;;;;;;25.70;81.10;101442.41;5106892;28;19973;-55
2023/08/07 09:20:53;;;;;;;;;;;;;;;25.94;75.70;101447.19;5097228;28;19916;-56
2023/08/07 09:23:19;;;;;;;;;;;;;;;26.57;73.26;101453.00;5097261;28;19946;-54
2023/08/07 09:25:45;;;;;;;;;;;;;;;26.75;71.47;101463.22;5097105;28;19916;-57
2023/08/07 09:28:11;;;;;;;;;;;;;;;26.63;71.74;101454.59;5103823;28;19912;-57
2023/08/07 09:30:37;;;;;;;;;;;;;;;26.02;71.49;101462.19;5096382;28;19939;-57
2023/08/07 09:33:03;;;;;;;;;;;;;;;26.65;72.31;101468.03;5096788;28;19954;-58
2023/08/07 09:35:29;;;;;;;;;;;;;;;26.54;78.97;101484.56;5096143;28;19936;-55
2023/08/07 09:37:56;;;;;;;;;;;;;;;25.67;78.10;101483.25;5097010;28;19947;-58
2023/08/07 09:40:22;;;;;;;;;;;;;;;26.71;79.75;101475.88;5088683;28;20006;-58
2023/08/07 09:42:54;;;;;;;;;;;;;;;26.37;79.07;101476.75;5097048;28;19928;-54
2023/08/07 09:45:24;;;;;;;;;;;;;;;27.27;77.40;101484.63;5083772;28;19938;-57
2023/08/07 09:47:58;;;;;;;;;;;;;;;26.70;84.38;101485.22;5098148;28;19927;-59
2023/08/07 09:50:24;;;;;;;;;;;;;;;26.73;92.15;101490.13;5096745;28;19916;-56
2023/08/07 09:52:49;;;;;;;;;;;;;;;26.02;91.41;101500.56;5066097;28;19988;-54
2023/08/07 09:55:15;;;;;;;;;;;;;;;26.14;91.43;101495.56;5096595;28;19947;-58
2023/08/07 09:57:44;;;;;;;;;;;;;;;26.37;94.40;101495.97;5096165;28;19927;-59
2023/08/07 10:00:11;;;;;;;;;;;;;;;27.13;90.39;101500.16;5095709;28;19923;-60
2023/08/07 10:02:38;;;;;;;;;;;;;;;27.95;81.27;101506.53;5096382;28;19921;-57
2023/08/07 10:05:05;;;;;;;;;;;;;;;27.62;84.40;101503.72;5100233;28;19944;-58
2023/08/07 10:07:31;;;;;;;;;;;;;;;28.43;74.67;101511.03;5096304;28;19920;-55
2023/08/07 10:10:00;;;;;;;;;;;;;;;28.36;70.76;101510.59;5100946;28;19938;-57
2023/08/07 10:12:27;;;;;;;;;;;;;;;28.26;73.75;101513.53;5098373;28;19948;-57
2023/08/07 10:14:53;;;;;;;;;;;;;;;29.38;71.03;101510.94;5095894;28;19947;-56
2023/08/07 10:17:20;;;;;;;;;;;;;;;29.62;59.08;101507.97;5101156;28;19916;-56
2023/08/07 10:19:45;;;;;;;;;;;;;;;29.93;63.05;101493.50;5087858;28;19916;-58
2023/08/07 10:22:12;;;;;;;;;;;;;;;31.07;55.72;101507.19;5079483;28;19935;-56
2023/08/07 10:24:38;;;;;;;;;;;;;;;30.98;55.74;101504.38;5086362;28;19916;-52
2023/08/07 10:27:05;;;;;;;;;;;;;;;30.86;54.34;101509.69;5086587;28;19920;-58
2023/08/07 10:29:31;;;;;;;;;;;;;;;31.08;49.83;101516.25;5095996;28;19980;-59
2023/08/07 10:31:58;;;;;;;;;;;;;;;29.49;50.55;101504.13;5094193;28;19924;-57
2023/08/07 10:34:23;;;;;;;;;;;;;;;29.82;55.29;101508.63;5081249;28;19952;-56
2023/08/07 10:36:49;;;;;;;;;;;;;;;29.62;53.00;101522.56;5098762;28;19915;-58
2023/08/07 10:39:15;;;;;;;;;;;;;;;29.42;51.21;101515.56;5101948;28;19931;-58
2023/08/07 10:41:42;;;;;;;;;;;;;;;29.56;51.23;101534.00;5095063;28;19920;-57
2023/08/07 10:44:17;;;;;;;;;;;;;;;29.77;51.55;101524.16;5098324;28;19943;-57
2023/08/07 10:46:55;;;;;;;;;;;;;;;29.56;50.96;101528.50;5097533;28;19917;-57
2023/08/07 10:49:56;;;;;;;;;;;;;;;28.99;53.58;101533.19;5101390;28;19963;-58
2023/08/07 10:52:24;;;;;;;;;;;;;;;29.11;60.55;101526.38;5046395;28;19933;-58
2023/08/07 10:54:50;;;;;;;;;;;;;;;28.69;60.04;101526.28;5089493;28;19928;-55
2023/08/07 10:57:17;;;;;;;;;;;;;;;28.74;66.77;101537.22;5095684;28;19976;-59
2023/08/07 10:59:49;;;;;;;;;;;;;;;29.16;62.65;101540.03;5089436;28;19938;-60
2023/08/07 11:02:22;;;;;;;;;;;;;;;29.45;58.59;101539.75;5076150;28;19932;-58
2023/08/07 11:04:48;;;;;;;;;;;;;;;29.56;58.52;101556.06;5089720;28;19923;-60
2023/08/07 11:07:22;;;;;;;;;;;;;;;29.76;57.47;101546.53;5095983;28;19917;-59
2023/08/07 11:09:47;;;;;;;;;;;;;;;30.12;56.66;101545.72;5094961;28;19916;-56
2023/08/07 11:12:13;;;;;;;;;;;;;;;30.27;53.24;101558.34;5095757;28;20050;-58
2023/08/07 11:14:40;;;;;;;;;;;;;;;29.14;53.05;101547.78;5095230;28;19943;-57
2023/08/07 11:17:06;;;;;;;;;;;;;;;29.94;57.37;101547.50;5096509;28;19915;-59
2023/08/07 11:19:32;;;;;;;;;;;;;;;29.09;52.19;101556.16;5081485;28;19921;-54
2023/08/07 11:21:57;;;;;;;;;;;;;;;29.93;54.72;101554.16;5092276;28;19948;-58
2023/08/07 11:24:23;;;;;;;;;;;;;;;30.72;57.03;101557.53;5094262;28;19916;-58
2023/08/07 11:26:48;;;;;;;;;;;;;;;30.61;52.97;101553.41;5092750;28;19942;-59
2023/08/07 11:29:20;;;;;;;;;;;;;;;32.07;51.18;101559.25;5093979;28;19948;-57
2023/08/07 11:31:46;;;;;;;;;;;;;;;32.70;49.32;101567.16;5090627;28;19917;-57
2023/08/07 11:34:11;;;;;;;;;;;;;;;33.72;43.93;101562.97;5090534;28;19935;-59
2023/08/07 11:36:43;;;;;;;;;;;;;;;34.17;46.08;101556.75;5090636;28;19976;-59
2023/08/07 11:39:09;;;;;;;;;;;;;;;33.66;42.85;101565.13;5096811;28;19916;-59
2023/08/07 11:41:34;;;;;;;;;;;;;;;33.60;45.47;101556.19;5089640;28;19931;-59
2023/08/07 11:44:00;;;;;;;;;;;;;;;32.46;43.88;101567.72;5090412;28;19929;-58
2023/08/07 11:46:25;;;;;;;;;;;;;;;31.55;41.76;101560.78;5094768;28;19943;-58
2023/08/07 11:48:51;;;;;;;;;;;;;;;31.35;42.97;101564.97;5094595;28;19916;-58
2023/08/07 11:51:19;;;;;;;;;;;;;;;32.41;47.32;101563.16;5093809;28;19947;-58
2023/08/07 11:53:45;;;;;;;;;;;;;;;31.41;41.17;101571.19;5092368;28;19974;-58
2023/08/07 11:56:14;;;;;;;;;;;;;;;31.78;43.83;101565.44;5092254;28;19923;-58
2023/08/07 11:58:45;;;;;;;;;;;;;;;31.31;44.22;101558.47;5094662;28;19940;-58
2023/08/07 12:01:15;;;;;;;;;;;;;;;31.33;50.12;101545.94;5091927;28;19923;-58
2023/08/07 12:03:43;;;;;;;;;;;;;;;32.24;42.73;101560.38;5094321;28;19980;-58
2023/08/07 12:06:08;;;;;;;;;;;;;;;30.44;46.08;101556.84;5092415;28;19938;-59
2023/08/07 12:08:38;;;;;;;;;;;;;;;33.27;44.43;101559.63;5092581;28;19924;-59
2023/08/07 12:11:05;;;;;;;;;;;;;;;33.81;41.61;101557.38;5090774;28;19955;-58
2023/08/07 12:13:31;;;;;;;;;;;;;;;32.98;39.57;101550.13;5091942;28;19916;-59
2023/08/07 12:15:58;;;;;;;;;;;;;;;34.81;34.80;101561.34;5094423;28;19951;-60
2023/08/07 12:18:25;;;;;;;;;;;;;;;34.35;35.91;101564.09;5094278;28;19969;-59
2023/08/07 12:20:53;;;;;;;;;;;;;;;33.68;37.41;101570.31;5094067;28;19917;-60
2023/08/07 12:23:20;;;;;;;;;;;;;;;33.06;38.97;101565.09;5095552;28;19920;-60
2023/08/07 12:25:47;;;;;;;;;;;;;;;33.68;34.51;101562.84;5098373;28;19917;-59